sensor_id;sensor_type;location;lat;lon;timestamp;P1;durP1;ratioP1;P2;durP2;ratioP2
26269;SDS011;15937;50.612;6.656;2023-08-06T00:03:47;1.55;;;1.15;;
26269;SDS011;15937;50.612;6.656;2023-08-06T00:07:49;4.13;;;1.20;;
26269;SDS011;15937;50.612;6.656;2023-08-06T00:11:51;1.90;;;1.38;;
26269;SDS011;15937;50.612;6.656;2023-08-06T00:15:54;2.63;;;1.20;;
26269;SDS011;15937;50.612;6.656;2023-08-06T00:19:55;1.65;;;1.20;;
26269;SDS011;15937;50.612;6.656;2023-08-06T00:23:57;2.28;;;1.13;;
26269;SDS011;15937;50.612;6.656;2023-08-06T00:27:59;3.67;;;1.17;;
26269;SDS011;15937;50.612;6.656;2023-08-06T00:32:00;3.63;;;1.15;;
26269;SDS011;15937;50.612;6.656;2023-08-06T00:36:02;2.83;;;1.35;;
26269;SDS011;15937;50.612;6.656;2023-08-06T00:40:04;3.38;;;1.45;;
26269;SDS011;15937;50.612;6.656;2023-08-06T00:44:07;4.15;;;1.38;;
26269;SDS011;15937;50.612;6.656;2023-08-06T00:48:09;5.68;;;1.35;;
26269;SDS011;15937;50.612;6.656;2023-08-06T00:52:11;1.75;;;1.27;;
26269;SDS011;15937;50.612;6.656;2023-08-06T00:56:15;2.47;;;1.40;;
26269;SDS011;15937;50.612;6.656;2023-08-06T01:00:17;2.53;;;1.23;;
26269;SDS011;15937;50.612;6.656;2023-08-06T01:04:19;1.20;;;0.93;;
26269;SDS011;15937;50.612;6.656;2023-08-06T01:08:33;2.33;;;1.30;;
26269;SDS011;15937;50.612;6.656;2023-08-06T01:17:35;3.08;;;1.13;;
26269;SDS011;15937;50.612;6.656;2023-08-06T01:22:08;3.42;;;1.50;;
26269;SDS011;15937;50.612;6.656;2023-08-06T01:30:29;2.20;;;1.10;;
26269;SDS011;15937;50.612;6.656;2023-08-06T01:38:46;2.17;;;1.25;;
26269;SDS011;15937;50.612;6.656;2023-08-06T01:42:48;5.72;;;2.30;;
26269;SDS011;15937;50.612;6.656;2023-08-06T01:46:50;4.50;;;1.90;;
26269;SDS011;15937;50.612;6.656;2023-08-06T01:50:52;3.38;;;1.85;;
26269;SDS011;15937;50.612;6.656;2023-08-06T01:54:54;2.05;;;1.52;;
26269;SDS011;15937;50.612;6.656;2023-08-06T01:58:56;3.30;;;1.60;;
26269;SDS011;15937;50.612;6.656;2023-08-06T02:02:58;3.08;;;1.45;;
26269;SDS011;15937;50.612;6.656;2023-08-06T02:06:59;2.33;;;1.48;;
26269;SDS011;15937;50.612;6.656;2023-08-06T02:11:01;3.17;;;1.70;;
26269;SDS011;15937;50.612;6.656;2023-08-06T02:15:04;4.00;;;2.00;;
26269;SDS011;15937;50.612;6.656;2023-08-06T02:19:06;6.50;;;1.70;;
26269;SDS011;15937;50.612;6.656;2023-08-06T02:23:08;3.15;;;1.60;;
26269;SDS011;15937;50.612;6.656;2023-08-06T02:27:10;7.03;;;2.10;;
26269;SDS011;15937;50.612;6.656;2023-08-06T02:31:11;6.78;;;1.70;;
26269;SDS011;15937;50.612;6.656;2023-08-06T02:35:13;6.70;;;2.17;;
26269;SDS011;15937;50.612;6.656;2023-08-06T02:39:15;2.97;;;1.50;;
26269;SDS011;15937;50.612;6.656;2023-08-06T02:43:17;4.80;;;1.75;;
26269;SDS011;15937;50.612;6.656;2023-08-06T02:47:18;12.40;;;1.63;;
26269;SDS011;15937;50.612;6.656;2023-08-06T02:51:20;2.33;;;1.40;;
26269;SDS011;15937;50.612;6.656;2023-08-06T02:55:22;4.85;;;1.80;;
26269;SDS011;15937;50.612;6.656;2023-08-06T02:59:24;5.23;;;1.97;;
26269;SDS011;15937;50.612;6.656;2023-08-06T03:03:26;6.15;;;1.42;;
26269;SDS011;15937;50.612;6.656;2023-08-06T03:07:28;5.97;;;1.55;;
26269;SDS011;15937;50.612;6.656;2023-08-06T03:11:30;3.90;;;1.65;;
26269;SDS011;15937;50.612;6.656;2023-08-06T03:15:31;3.92;;;1.35;;
26269;SDS011;15937;50.612;6.656;2023-08-06T03:19:33;4.80;;;1.88;;
26269;SDS011;15937;50.612;6.656;2023-08-06T03:23:35;1.63;;;1.33;;
26269;SDS011;15937;50.612;6.656;2023-08-06T03:27:36;2.97;;;1.40;;
26269;SDS011;15937;50.612;6.656;2023-08-06T03:31:38;3.17;;;1.55;;
26269;SDS011;15937;50.612;6.656;2023-08-06T03:35:40;3.38;;;1.20;;
26269;SDS011;15937;50.612;6.656;2023-08-06T03:39:42;3.35;;;1.10;;
26269;SDS011;15937;50.612;6.656;2023-08-06T03:43:43;6.28;;;1.10;;
26269;SDS011;15937;50.612;6.656;2023-08-06T03:47:45;1.63;;;1.13;;
26269;SDS011;15937;50.612;6.656;2023-08-06T03:51:47;1.08;;;1.00;;
26269;SDS011;15937;50.612;6.656;2023-08-06T03:55:49;1.00;;;0.90;;
26269;SDS011;15937;50.612;6.656;2023-08-06T03:59:50;1.40;;;0.80;;
26269;SDS011;15937;50.612;6.656;2023-08-06T04:03:55;0.95;;;0.73;;
26269;SDS011;15937;50.612;6.656;2023-08-06T04:07:57;6.90;;;0.70;;
26269;SDS011;15937;50.612;6.656;2023-08-06T04:11:59;5.03;;;0.60;;
26269;SDS011;15937;50.612;6.656;2023-08-06T04:16:02;1.40;;;0.70;;
26269;SDS011;15937;50.612;6.656;2023-08-06T04:20:05;0.90;;;0.63;;
26269;SDS011;15937;50.612;6.656;2023-08-06T04:24:07;0.50;;;0.50;;
26269;SDS011;15937;50.612;6.656;2023-08-06T04:28:09;0.60;;;0.60;;
26269;SDS011;15937;50.612;6.656;2023-08-06T04:32:11;0.38;;;0.38;;
26269;SDS011;15937;50.612;6.656;2023-08-06T04:36:14;0.65;;;0.52;;
26269;SDS011;15937;50.612;6.656;2023-08-06T04:40:15;0.60;;;0.60;;
26269;SDS011;15937;50.612;6.656;2023-08-06T04:44:17;0.63;;;0.63;;
26269;SDS011;15937;50.612;6.656;2023-08-06T04:48:22;0.80;;;0.70;;
26269;SDS011;15937;50.612;6.656;2023-08-06T04:52:24;0.70;;;0.70;;
26269;SDS011;15937;50.612;6.656;2023-08-06T04:56:29;3.28;;;2.05;;
26269;SDS011;15937;50.612;6.656;2023-08-06T05:00:31;2.25;;;1.35;;
26269;SDS011;15937;50.612;6.656;2023-08-06T05:04:32;1.83;;;1.00;;
26269;SDS011;15937;50.612;6.656;2023-08-06T05:08:34;1.05;;;0.93;;
26269;SDS011;15937;50.612;6.656;2023-08-06T05:12:36;2.85;;;1.75;;
26269;SDS011;15937;50.612;6.656;2023-08-06T05:16:37;1.85;;;1.48;;
26269;SDS011;15937;50.612;6.656;2023-08-06T05:20:40;1.40;;;0.83;;
26269;SDS011;15937;50.612;6.656;2023-08-06T05:24:43;1.30;;;1.20;;
26269;SDS011;15937;50.612;6.656;2023-08-06T05:28:45;2.33;;;1.50;;
26269;SDS011;15937;50.612;6.656;2023-08-06T05:32:47;3.57;;;1.67;;
26269;SDS011;15937;50.612;6.656;2023-08-06T05:36:48;1.38;;;1.20;;
26269;SDS011;15937;50.612;6.656;2023-08-06T05:40:50;2.33;;;1.20;;
26269;SDS011;15937;50.612;6.656;2023-08-06T05:44:52;2.75;;;1.35;;
26269;SDS011;15937;50.612;6.656;2023-08-06T05:48:54;4.90;;;1.27;;
26269;SDS011;15937;50.612;6.656;2023-08-06T05:52:55;4.47;;;1.25;;
26269;SDS011;15937;50.612;6.656;2023-08-06T05:57:01;2.55;;;1.38;;
26269;SDS011;15937;50.612;6.656;2023-08-06T06:01:03;2.83;;;1.50;;
26269;SDS011;15937;50.612;6.656;2023-08-06T06:05:05;2.42;;;1.25;;
26269;SDS011;15937;50.612;6.656;2023-08-06T06:09:07;1.80;;;1.40;;
26269;SDS011;15937;50.612;6.656;2023-08-06T06:13:09;1.43;;;1.27;;
26269;SDS011;15937;50.612;6.656;2023-08-06T06:17:10;3.13;;;1.65;;
26269;SDS011;15937;50.612;6.656;2023-08-06T06:21:12;2.35;;;1.15;;
26269;SDS011;15937;50.612;6.656;2023-08-06T06:25:14;1.48;;;1.20;;
26269;SDS011;15937;50.612;6.656;2023-08-06T06:29:16;1.00;;;1.00;;
26269;SDS011;15937;50.612;6.656;2023-08-06T06:33:18;2.13;;;1.23;;
26269;SDS011;15937;50.612;6.656;2023-08-06T06:37:20;2.70;;;1.30;;
26269;SDS011;15937;50.612;6.656;2023-08-06T06:41:22;2.78;;;1.20;;
26269;SDS011;15937;50.612;6.656;2023-08-06T06:45:25;4.18;;;1.25;;
26269;SDS011;15937;50.612;6.656;2023-08-06T06:49:26;2.55;;;1.23;;
26269;SDS011;15937;50.612;6.656;2023-08-06T06:53:28;2.05;;;1.40;;
26269;SDS011;15937;50.612;6.656;2023-08-06T06:57:30;2.57;;;1.57;;
26269;SDS011;15937;50.612;6.656;2023-08-06T07:01:32;1.48;;;1.25;;
26269;SDS011;15937;50.612;6.656;2023-08-06T07:05:37;2.35;;;1.58;;
26269;SDS011;15937;50.612;6.656;2023-08-06T07:09:38;2.20;;;1.30;;
26269;SDS011;15937;50.612;6.656;2023-08-06T07:13:43;3.17;;;0.93;;
26269;SDS011;15937;50.612;6.656;2023-08-06T07:17:44;6.40;;;1.30;;
26269;SDS011;15937;50.612;6.656;2023-08-06T07:21:46;1.65;;;1.20;;
26269;SDS011;15937;50.612;6.656;2023-08-06T07:25:48;1.45;;;1.20;;
26269;SDS011;15937;50.612;6.656;2023-08-06T07:29:50;6.57;;;1.13;;
26269;SDS011;15937;50.612;6.656;2023-08-06T07:33:52;1.38;;;0.90;;
26269;SDS011;15937;50.612;6.656;2023-08-06T07:37:54;4.70;;;1.02;;
26269;SDS011;15937;50.612;6.656;2023-08-06T07:41:55;2.60;;;1.10;;
26269;SDS011;15937;50.612;6.656;2023-08-06T07:45:58;1.38;;;1.27;;
26269;SDS011;15937;50.612;6.656;2023-08-06T07:50:01;2.08;;;1.20;;
26269;SDS011;15937;50.612;6.656;2023-08-06T07:54:03;1.38;;;1.20;;
26269;SDS011;15937;50.612;6.656;2023-08-06T07:58:05;3.53;;;1.08;;
26269;SDS011;15937;50.612;6.656;2023-08-06T08:02:07;2.20;;;1.25;;
26269;SDS011;15937;50.612;6.656;2023-08-06T08:06:08;4.50;;;1.30;;
26269;SDS011;15937;50.612;6.656;2023-08-06T08:10:13;4.05;;;1.50;;
26269;SDS011;15937;50.612;6.656;2023-08-06T08:19:15;5.07;;;1.50;;
26269;SDS011;15937;50.612;6.656;2023-08-06T08:23:30;2.25;;;1.70;;
26269;SDS011;15937;50.612;6.656;2023-08-06T08:27:33;10.80;;;5.95;;
26269;SDS011;15937;50.612;6.656;2023-08-06T08:31:37;4.80;;;1.60;;
26269;SDS011;15937;50.612;6.656;2023-08-06T08:35:57;2.25;;;1.92;;
26269;SDS011;15937;50.612;6.656;2023-08-06T08:40:51;2.60;;;1.10;;
26269;SDS011;15937;50.612;6.656;2023-08-06T08:44:57;1.25;;;0.80;;
26269;SDS011;15937;50.612;6.656;2023-08-06T08:49:05;0.50;;;0.50;;
26269;SDS011;15937;50.612;6.656;2023-08-06T08:53:08;1.83;;;0.50;;
26269;SDS011;15937;50.612;6.656;2023-08-06T08:57:15;1.00;;;0.40;;
26269;SDS011;15937;50.612;6.656;2023-08-06T09:01:22;0.47;;;0.47;;
26269;SDS011;15937;50.612;6.656;2023-08-06T09:05:33;0.90;;;0.50;;
26269;SDS011;15937;50.612;6.656;2023-08-06T09:09:54;1.75;;;0.75;;
26269;SDS011;15937;50.612;6.656;2023-08-06T09:13:58;0.80;;;0.80;;
26269;SDS011;15937;50.612;6.656;2023-08-06T09:22:22;0.80;;;0.80;;
26269;SDS011;15937;50.612;6.656;2023-08-06T09:26:24;0.85;;;0.80;;
26269;SDS011;15937;50.612;6.656;2023-08-06T09:30:52;7.72;;;1.27;;
26269;SDS011;15937;50.612;6.656;2023-08-06T09:35:02;2.67;;;0.93;;
26269;SDS011;15937;50.612;6.656;2023-08-06T09:39:16;1.42;;;0.80;;
26269;SDS011;15937;50.612;6.656;2023-08-06T09:43:29;2.15;;;1.20;;
26269;SDS011;15937;50.612;6.656;2023-08-06T09:48:26;3.22;;;1.20;;
26269;SDS011;15937;50.612;6.656;2023-08-06T09:52:49;4.25;;;1.80;;
26269;SDS011;15937;50.612;6.656;2023-08-06T09:57:22;4.75;;;1.85;;
26269;SDS011;15937;50.612;6.656;2023-08-06T10:02:06;2.65;;;2.00;;
26269;SDS011;15937;50.612;6.656;2023-08-06T10:10:45;6.85;;;1.75;;
26269;SDS011;15937;50.612;6.656;2023-08-06T10:15:39;2.25;;;1.60;;
26269;SDS011;15937;50.612;6.656;2023-08-06T10:25:20;3.13;;;1.40;;
26269;SDS011;15937;50.612;6.656;2023-08-06T10:29:45;6.78;;;1.27;;
26269;SDS011;15937;50.612;6.656;2023-08-06T10:33:57;5.15;;;1.17;;
26269;SDS011;15937;50.612;6.656;2023-08-06T10:38:08;7.38;;;2.60;;
26269;SDS011;15937;50.612;6.656;2023-08-06T10:42:57;5.10;;;1.35;;
26269;SDS011;15937;50.612;6.656;2023-08-06T10:47:47;3.35;;;1.33;;
26269;SDS011;15937;50.612;6.656;2023-08-06T10:51:57;1.17;;;1.05;;
26269;SDS011;15937;50.612;6.656;2023-08-06T10:56:12;5.53;;;1.50;;
26269;SDS011;15937;50.612;6.656;2023-08-06T11:00:42;2.30;;;1.08;;
26269;SDS011;15937;50.612;6.656;2023-08-06T11:05:04;1.40;;;1.00;;
26269;SDS011;15937;50.612;6.656;2023-08-06T11:18:35;5.55;;;1.65;;
26269;SDS011;15937;50.612;6.656;2023-08-06T11:23:43;4.20;;;1.08;;
26269;SDS011;15937;50.612;6.656;2023-08-06T11:28:26;0.93;;;0.90;;
26269;SDS011;15937;50.612;6.656;2023-08-06T11:32:46;2.22;;;0.90;;
26269;SDS011;15937;50.612;6.656;2023-08-06T11:37:20;3.03;;;0.95;;
26269;SDS011;15937;50.612;6.656;2023-08-06T11:47:25;2.40;;;0.77;;
26269;SDS011;15937;50.612;6.656;2023-08-06T11:56:49;4.72;;;1.13;;
26269;SDS011;15937;50.612;6.656;2023-08-06T12:05:37;1.45;;;1.00;;
26269;SDS011;15937;50.612;6.656;2023-08-06T12:09:49;0.80;;;0.80;;
26269;SDS011;15937;50.612;6.656;2023-08-06T12:13:55;3.17;;;1.10;;
26269;SDS011;15937;50.612;6.656;2023-08-06T12:17:59;1.20;;;1.10;;
26269;SDS011;15937;50.612;6.656;2023-08-06T12:22:32;1.08;;;0.80;;
26269;SDS011;15937;50.612;6.656;2023-08-06T12:26:54;0.60;;;0.60;;
26269;SDS011;15937;50.612;6.656;2023-08-06T12:31:02;1.38;;;0.52;;
26269;SDS011;15937;50.612;6.656;2023-08-06T12:35:18;2.78;;;0.88;;
26269;SDS011;15937;50.612;6.656;2023-08-06T12:39:22;0.90;;;0.70;;
26269;SDS011;15937;50.612;6.656;2023-08-06T12:48:15;0.50;;;0.50;;
26269;SDS011;15937;50.612;6.656;2023-08-06T12:52:21;0.55;;;0.40;;
26269;SDS011;15937;50.612;6.656;2023-08-06T12:56:34;0.60;;;0.60;;
26269;SDS011;15937;50.612;6.656;2023-08-06T13:00:40;3.03;;;0.77;;
26269;SDS011;15937;50.612;6.656;2023-08-06T13:04:54;1.75;;;0.75;;
26269;SDS011;15937;50.612;6.656;2023-08-06T13:09:07;1.10;;;1.00;;
26269;SDS011;15937;50.612;6.656;2023-08-06T13:13:39;1.52;;;1.05;;
26269;SDS011;15937;50.612;6.656;2023-08-06T13:18:39;4.63;;;0.80;;
26269;SDS011;15937;50.612;6.656;2023-08-06T13:22:49;2.08;;;1.00;;
26269;SDS011;15937;50.612;6.656;2023-08-06T13:31:24;2.50;;;1.13;;
26269;SDS011;15937;50.612;6.656;2023-08-06T13:36:30;6.13;;;0.95;;
26269;SDS011;15937;50.612;6.656;2023-08-06T13:40:33;5.53;;;1.10;;
26269;SDS011;15937;50.612;6.656;2023-08-06T13:44:35;4.85;;;1.00;;
26269;SDS011;15937;50.612;6.656;2023-08-06T13:48:38;4.93;;;1.00;;
26269;SDS011;15937;50.612;6.656;2023-08-06T13:52:40;3.90;;;0.98;;
26269;SDS011;15937;50.612;6.656;2023-08-06T13:56:42;1.70;;;0.80;;
26269;SDS011;15937;50.612;6.656;2023-08-06T14:04:47;7.13;;;0.98;;
26269;SDS011;15937;50.612;6.656;2023-08-06T14:08:51;1.42;;;0.80;;
26269;SDS011;15937;50.612;6.656;2023-08-06T14:12:52;6.10;;;1.08;;
26269;SDS011;15937;50.612;6.656;2023-08-06T14:17:10;0.45;;;0.45;;
26269;SDS011;15937;50.612;6.656;2023-08-06T14:21:12;1.05;;;0.70;;
26269;SDS011;15937;50.612;6.656;2023-08-06T14:25:14;0.60;;;0.60;;
26269;SDS011;15937;50.612;6.656;2023-08-06T14:29:16;2.15;;;0.80;;
26269;SDS011;15937;50.612;6.656;2023-08-06T14:33:17;2.75;;;1.20;;
26269;SDS011;15937;50.612;6.656;2023-08-06T14:37:28;1.08;;;0.93;;
26269;SDS011;15937;50.612;6.656;2023-08-06T14:41:30;3.67;;;1.63;;
26269;SDS011;15937;50.612;6.656;2023-08-06T14:45:32;2.67;;;0.80;;
26269;SDS011;15937;50.612;6.656;2023-08-06T14:49:33;1.30;;;0.98;;
26269;SDS011;15937;50.612;6.656;2023-08-06T14:53:35;1.50;;;1.20;;
26269;SDS011;15937;50.612;6.656;2023-08-06T14:57:37;0.63;;;0.63;;
26269;SDS011;15937;50.612;6.656;2023-08-06T15:01:39;1.17;;;1.05;;
26269;SDS011;15937;50.612;6.656;2023-08-06T15:05:47;6.47;;;1.47;;
26269;SDS011;15937;50.612;6.656;2023-08-06T15:09:50;0.60;;;0.60;;
26269;SDS011;15937;50.612;6.656;2023-08-06T15:14:12;5.22;;;0.75;;
26269;SDS011;15937;50.612;6.656;2023-08-06T15:18:15;0.60;;;0.60;;
26269;SDS011;15937;50.612;6.656;2023-08-06T15:22:17;0.77;;;0.77;;
26269;SDS011;15937;50.612;6.656;2023-08-06T15:26:20;0.77;;;0.70;;
26269;SDS011;15937;50.612;6.656;2023-08-06T15:30:22;0.77;;;0.77;;
26269;SDS011;15937;50.612;6.656;2023-08-06T15:34:24;0.90;;;0.50;;
26269;SDS011;15937;50.612;6.656;2023-08-06T15:38:26;1.80;;;0.63;;
26269;SDS011;15937;50.612;6.656;2023-08-06T15:42:28;1.42;;;0.60;;
26269;SDS011;15937;50.612;6.656;2023-08-06T15:46:30;1.55;;;0.63;;
26269;SDS011;15937;50.612;6.656;2023-08-06T15:50:32;2.33;;;0.77;;
26269;SDS011;15937;50.612;6.656;2023-08-06T15:54:34;0.93;;;0.70;;
26269;SDS011;15937;50.612;6.656;2023-08-06T15:58:36;3.22;;;0.80;;
26269;SDS011;15937;50.612;6.656;2023-08-06T16:02:39;1.00;;;0.77;;
26269;SDS011;15937;50.612;6.656;2023-08-06T16:06:42;0.82;;;0.80;;
26269;SDS011;15937;50.612;6.656;2023-08-06T16:10:45;1.33;;;0.80;;
26269;SDS011;15937;50.612;6.656;2023-08-06T16:14:46;2.92;;;0.70;;
26269;SDS011;15937;50.612;6.656;2023-08-06T16:18:51;9.25;;;2.58;;
26269;SDS011;15937;50.612;6.656;2023-08-06T16:22:53;4.55;;;1.20;;
26269;SDS011;15937;50.612;6.656;2023-08-06T16:26:54;4.18;;;0.95;;
26269;SDS011;15937;50.612;6.656;2023-08-06T16:30:57;2.00;;;1.00;;
26269;SDS011;15937;50.612;6.656;2023-08-06T16:34:58;3.65;;;0.95;;
26269;SDS011;15937;50.612;6.656;2023-08-06T16:39:01;1.02;;;0.90;;
26269;SDS011;15937;50.612;6.656;2023-08-06T16:47:05;2.88;;;1.02;;
26269;SDS011;15937;50.612;6.656;2023-08-06T16:51:07;3.10;;;0.83;;
26269;SDS011;15937;50.612;6.656;2023-08-06T16:55:09;1.17;;;1.08;;
26269;SDS011;15937;50.612;6.656;2023-08-06T16:59:11;1.40;;;0.70;;
26269;SDS011;15937;50.612;6.656;2023-08-06T17:03:14;2.08;;;1.10;;
26269;SDS011;15937;50.612;6.656;2023-08-06T17:07:17;1.20;;;1.10;;
26269;SDS011;15937;50.612;6.656;2023-08-06T17:11:19;2.33;;;1.10;;
26269;SDS011;15937;50.612;6.656;2023-08-06T17:15:21;4.00;;;1.45;;
26269;SDS011;15937;50.612;6.656;2023-08-06T17:19:23;2.42;;;1.00;;
26269;SDS011;15937;50.612;6.656;2023-08-06T17:23:25;5.25;;;1.27;;
26269;SDS011;15937;50.612;6.656;2023-08-06T17:27:27;2.55;;;1.15;;
26269;SDS011;15937;50.612;6.656;2023-08-06T17:31:29;4.60;;;1.40;;
26269;SDS011;15937;50.612;6.656;2023-08-06T17:35:30;3.35;;;1.20;;
26269;SDS011;15937;50.612;6.656;2023-08-06T17:39:34;2.10;;;1.02;;
26269;SDS011;15937;50.612;6.656;2023-08-06T17:43:36;2.95;;;1.30;;
26269;SDS011;15937;50.612;6.656;2023-08-06T17:47:38;3.60;;;1.17;;
26269;SDS011;15937;50.612;6.656;2023-08-06T17:51:42;1.10;;;1.00;;
26269;SDS011;15937;50.612;6.656;2023-08-06T17:55:44;2.05;;;0.80;;
26269;SDS011;15937;50.612;6.656;2023-08-06T17:59:46;2.25;;;1.00;;
26269;SDS011;15937;50.612;6.656;2023-08-06T18:03:47;3.92;;;0.88;;
26269;SDS011;15937;50.612;6.656;2023-08-06T18:07:51;0.80;;;0.80;;
26269;SDS011;15937;50.612;6.656;2023-08-06T18:11:53;1.52;;;0.77;;
26269;SDS011;15937;50.612;6.656;2023-08-06T18:15:55;0.85;;;0.60;;
26269;SDS011;15937;50.612;6.656;2023-08-06T18:19:56;3.78;;;0.75;;
26269;SDS011;15937;50.612;6.656;2023-08-06T18:23:59;3.95;;;0.98;;
26269;SDS011;15937;50.612;6.656;2023-08-06T18:28:00;6.03;;;1.00;;
26269;SDS011;15937;50.612;6.656;2023-08-06T18:32:02;6.35;;;1.27;;
26269;SDS011;15937;50.612;6.656;2023-08-06T18:36:05;4.30;;;1.40;;
26269;SDS011;15937;50.612;6.656;2023-08-06T18:40:07;9.67;;;1.57;;
26269;SDS011;15937;50.612;6.656;2023-08-06T18:48:11;9.23;;;1.25;;
26269;SDS011;15937;50.612;6.656;2023-08-06T18:52:17;1.38;;;1.25;;
26269;SDS011;15937;50.612;6.656;2023-08-06T18:56:19;5.17;;;1.57;;
26269;SDS011;15937;50.612;6.656;2023-08-06T19:00:20;3.00;;;1.30;;
26269;SDS011;15937;50.612;6.656;2023-08-06T19:04:22;7.78;;;1.17;;
26269;SDS011;15937;50.612;6.656;2023-08-06T19:08:25;4.57;;;1.30;;
26269;SDS011;15937;50.612;6.656;2023-08-06T19:12:27;5.57;;;1.40;;
26269;SDS011;15937;50.612;6.656;2023-08-06T19:16:29;1.90;;;1.23;;
26269;SDS011;15937;50.612;6.656;2023-08-06T19:20:31;6.55;;;1.52;;
26269;SDS011;15937;50.612;6.656;2023-08-06T19:24:33;4.00;;;1.20;;
26269;SDS011;15937;50.612;6.656;2023-08-06T19:28:34;2.40;;;1.10;;
26269;SDS011;15937;50.612;6.656;2023-08-06T19:32:36;3.67;;;1.80;;
26269;SDS011;15937;50.612;6.656;2023-08-06T19:36:38;7.13;;;1.60;;
26269;SDS011;15937;50.612;6.656;2023-08-06T19:40:40;4.22;;;1.63;;
26269;SDS011;15937;50.612;6.656;2023-08-06T19:44:42;3.00;;;1.55;;
26269;SDS011;15937;50.612;6.656;2023-08-06T19:48:44;5.30;;;1.73;;
26269;SDS011;15937;50.612;6.656;2023-08-06T19:52:46;6.43;;;2.00;;
26269;SDS011;15937;50.612;6.656;2023-08-06T19:56:48;10.73;;;1.83;;
26269;SDS011;15937;50.612;6.656;2023-08-06T20:00:50;8.57;;;1.85;;
26269;SDS011;15937;50.612;6.656;2023-08-06T20:04:51;8.05;;;2.40;;
26269;SDS011;15937;50.612;6.656;2023-08-06T20:08:53;11.20;;;1.88;;
26269;SDS011;15937;50.612;6.656;2023-08-06T20:12:55;9.25;;;2.30;;
26269;SDS011;15937;50.612;6.656;2023-08-06T20:16:57;8.23;;;1.88;;
26269;SDS011;15937;50.612;6.656;2023-08-06T20:20:59;14.20;;;1.75;;
26269;SDS011;15937;50.612;6.656;2023-08-06T20:25:05;10.38;;;2.00;;
26269;SDS011;15937;50.612;6.656;2023-08-06T20:29:11;7.32;;;2.63;;
26269;SDS011;15937;50.612;6.656;2023-08-06T20:33:25;9.13;;;1.98;;
26269;SDS011;15937;50.612;6.656;2023-08-06T20:37:34;7.43;;;2.70;;
26269;SDS011;15937;50.612;6.656;2023-08-06T20:41:39;9.32;;;2.03;;
26269;SDS011;15937;50.612;6.656;2023-08-06T20:45:58;16.60;;;1.67;;
26269;SDS011;15937;50.612;6.656;2023-08-06T20:50:07;16.77;;;2.25;;
26269;SDS011;15937;50.612;6.656;2023-08-06T20:54:14;11.70;;;1.70;;
26269;SDS011;15937;50.612;6.656;2023-08-06T20:58:16;12.02;;;2.40;;
26269;SDS011;15937;50.612;6.656;2023-08-06T21:02:18;10.30;;;2.00;;
26269;SDS011;15937;50.612;6.656;2023-08-06T21:06:23;12.07;;;2.33;;
26269;SDS011;15937;50.612;6.656;2023-08-06T21:10:28;5.33;;;1.60;;
26269;SDS011;15937;50.612;6.656;2023-08-06T21:14:39;9.82;;;1.73;;
26269;SDS011;15937;50.612;6.656;2023-08-06T21:18:41;8.07;;;1.65;;
26269;SDS011;15937;50.612;6.656;2023-08-06T21:22:48;10.45;;;1.90;;
26269;SDS011;15937;50.612;6.656;2023-08-06T21:26:53;11.20;;;1.80;;
26269;SDS011;15937;50.612;6.656;2023-08-06T21:31:01;4.30;;;1.20;;
26269;SDS011;15937;50.612;6.656;2023-08-06T21:35:06;5.03;;;1.48;;
26269;SDS011;15937;50.612;6.656;2023-08-06T21:39:11;3.13;;;1.45;;
26269;SDS011;15937;50.612;6.656;2023-08-06T21:43:21;7.13;;;1.60;;
26269;SDS011;15937;50.612;6.656;2023-08-06T21:47:23;8.20;;;1.65;;
26269;SDS011;15937;50.612;6.656;2023-08-06T21:51:30;11.35;;;1.83;;
26269;SDS011;15937;50.612;6.656;2023-08-06T21:55:32;5.32;;;1.90;;
26269;SDS011;15937;50.612;6.656;2023-08-06T21:59:34;4.68;;;1.88;;
26269;SDS011;15937;50.612;6.656;2023-08-06T22:03:36;13.52;;;2.75;;
26269;SDS011;15937;50.612;6.656;2023-08-06T22:07:44;9.30;;;2.17;;
26269;SDS011;15937;50.612;6.656;2023-08-06T22:11:46;6.70;;;2.30;;
26269;SDS011;15937;50.612;6.656;2023-08-06T22:15:48;11.85;;;2.22;;
26269;SDS011;15937;50.612;6.656;2023-08-06T22:19:51;12.18;;;2.30;;
26269;SDS011;15937;50.612;6.656;2023-08-06T22:23:52;15.07;;;2.30;;
26269;SDS011;15937;50.612;6.656;2023-08-06T22:27:54;9.05;;;1.70;;
26269;SDS011;15937;50.612;6.656;2023-08-06T22:31:57;20.25;;;2.67;;
26269;SDS011;15937;50.612;6.656;2023-08-06T22:35:59;14.63;;;2.55;;
26269;SDS011;15937;50.612;6.656;2023-08-06T22:40:01;11.90;;;2.38;;
26269;SDS011;15937;50.612;6.656;2023-08-06T22:44:04;17.27;;;2.60;;
26269;SDS011;15937;50.612;6.656;2023-08-06T22:48:05;9.85;;;2.53;;
26269;SDS011;15937;50.612;6.656;2023-08-06T22:52:07;15.25;;;2.72;;
26269;SDS011;15937;50.612;6.656;2023-08-06T22:56:09;13.15;;;2.30;;
26269;SDS011;15937;50.612;6.656;2023-08-06T23:00:11;19.75;;;3.53;;
26269;SDS011;15937;50.612;6.656;2023-08-06T23:04:13;17.92;;;3.53;;
26269;SDS011;15937;50.612;6.656;2023-08-06T23:08:15;16.95;;;2.78;;
26269;SDS011;15937;50.612;6.656;2023-08-06T23:12:17;11.02;;;2.72;;
26269;SDS011;15937;50.612;6.656;2023-08-06T23:16:19;13.30;;;2.83;;
26269;SDS011;15937;50.612;6.656;2023-08-06T23:20:20;15.02;;;2.90;;
26269;SDS011;15937;50.612;6.656;2023-08-06T23:24:23;17.13;;;2.92;;
26269;SDS011;15937;50.612;6.656;2023-08-06T23:28:28;20.45;;;2.88;;
26269;SDS011;15937;50.612;6.656;2023-08-06T23:32:30;13.15;;;2.80;;
26269;SDS011;15937;50.612;6.656;2023-08-06T23:40:34;14.85;;;3.25;;
26269;SDS011;15937;50.612;6.656;2023-08-06T23:44:36;10.30;;;2.78;;
26269;SDS011;15937;50.612;6.656;2023-08-06T23:48:38;11.82;;;2.65;;
26269;SDS011;15937;50.612;6.656;2023-08-06T23:52:39;27.13;;;3.28;;
26269;SDS011;15937;50.612;6.656;2023-08-06T23:56:41;8.45;;;2.63;;
